sensor_id;sensor_type;location;lat;lon;timestamp;pressure;altitude;pressure_sealevel;temperature;humidity
45621;BME280;31345;51.522;10.702;2023-04-04T00:00:00;100391.31;;;-1.35;100.00
45621;BME280;31345;51.522;10.702;2023-04-04T00:02:35;100385.38;;;-1.26;100.00
45621;BME280;31345;51.522;10.702;2023-04-04T00:05:08;100386.25;;;-1.29;100.00
45621;BME280;31345;51.522;10.702;2023-04-04T00:07:41;100385.19;;;-1.70;100.00
45621;BME280;31345;51.522;10.702;2023-04-04T00:10:17;100386.88;;;-1.75;100.00
45621;BME280;31345;51.522;10.702;2023-04-04T00:12:44;100384.28;;;-1.80;100.00
45621;BME280;31345;51.522;10.702;2023-04-04T00:15:16;100378.22;;;-1.94;100.00
45621;BME280;31345;51.522;10.702;2023-04-04T00:17:49;100385.19;;;-1.68;100.00
45621;BME280;31345;51.522;10.702;2023-04-04T00:20:21;100391.19;;;-1.65;100.00
45621;BME280;31345;51.522;10.702;2023-04-04T00:22:50;100377.56;;;-1.56;100.00
45621;BME280;31345;51.522;10.702;2023-04-04T00:25:22;100381.88;;;-1.50;100.00
45621;BME280;31345;51.522;10.702;2023-04-04T00:27:55;100381.81;;;-1.61;100.00
45621;BME280;31345;51.522;10.702;2023-04-04T00:30:30;100381.84;;;-1.58;100.00
45621;BME280;31345;51.522;10.702;2023-04-04T00:32:57;100387.03;;;-1.38;100.00
45621;BME280;31345;51.522;10.702;2023-04-04T00:35:31;100383.59;;;-1.44;100.00
45621;BME280;31345;51.522;10.702;2023-04-04T00:38:05;100389.53;;;-1.55;100.00
45621;BME280;31345;51.522;10.702;2023-04-04T00:40:33;100389.41;;;-1.80;100.00
45621;BME280;31345;51.522;10.702;2023-04-04T00:43:06;100385.16;;;-1.79;100.00
45621;BME280;31345;51.522;10.702;2023-04-04T00:45:38;100392.84;;;-1.75;100.00
45621;BME280;31345;51.522;10.702;2023-04-04T00:48:12;100392.94;;;-1.57;100.00
45621;BME280;31345;51.522;10.702;2023-04-04T00:50:44;100388.63;;;-1.63;100.00
45621;BME280;31345;51.522;10.702;2023-04-04T00:53:13;100383.50;;;-1.65;100.00
45621;BME280;31345;51.522;10.702;2023-04-04T00:55:40;100389.56;;;-1.50;100.00
45621;BME280;31345;51.522;10.702;2023-04-04T00:58:13;100386.19;;;-1.43;100.00
45621;BME280;31345;51.522;10.702;2023-04-04T01:00:46;100384.50;;;-1.35;100.00
45621;BME280;31345;51.522;10.702;2023-04-04T01:03:18;100386.19;;;-1.41;100.00
45621;BME280;31345;51.522;10.702;2023-04-04T01:05:51;100380.16;;;-1.45;100.00
45621;BME280;31345;51.522;10.702;2023-04-04T01:08:25;100388.75;;;-1.40;100.00
45621;BME280;31345;51.522;10.702;2023-04-04T01:10:59;100387.84;;;-1.46;100.00
45621;BME280;31345;51.522;10.702;2023-04-04T01:13:32;100386.94;;;-1.56;100.00
45621;BME280;31345;51.522;10.702;2023-04-04T01:16:05;100388.75;;;-1.43;100.00
45621;BME280;31345;51.522;10.702;2023-04-04T01:18:38;100387.94;;;-1.29;100.00
45621;BME280;31345;51.522;10.702;2023-04-04T01:21:08;100377.72;;;-1.20;100.00
45621;BME280;31345;51.522;10.702;2023-04-04T01:23:46;100375.97;;;-1.23;100.00
45621;BME280;31345;51.522;10.702;2023-04-04T01:26:22;100376.03;;;-1.10;100.00
45621;BME280;31345;51.522;10.702;2023-04-04T01:28:58;100378.59;;;-1.10;100.00
45621;BME280;31345;51.522;10.702;2023-04-04T01:31:32;100373.50;;;-0.98;100.00
45621;BME280;31345;51.522;10.702;2023-04-04T01:34:08;100371.78;;;-1.02;100.00
45621;BME280;31345;51.522;10.702;2023-04-04T01:36:46;100369.16;;;-1.17;100.00
45621;BME280;31345;51.522;10.702;2023-04-04T01:39:17;100367.50;;;-1.00;100.00
45621;BME280;31345;51.522;10.702;2023-04-04T01:41:55;100362.41;;;-0.81;100.00
45621;BME280;31345;51.522;10.702;2023-04-04T01:44:28;100349.56;;;-0.81;100.00
45621;BME280;31345;51.522;10.702;2023-04-04T01:46:56;100349.56;;;-0.73;100.00
45621;BME280;31345;51.522;10.702;2023-04-04T01:49:29;100351.31;;;-0.61;100.00
45621;BME280;31345;51.522;10.702;2023-04-04T01:52:01;100341.00;;;-0.71;100.00
45621;BME280;31345;51.522;10.702;2023-04-04T01:54:34;100340.13;;;-0.79;100.00
45621;BME280;31345;51.522;10.702;2023-04-04T01:57:03;100343.56;;;-0.69;100.00
45621;BME280;31345;51.522;10.702;2023-04-04T01:59:30;100335.00;;;-0.85;100.00
45621;BME280;31345;51.522;10.702;2023-04-04T02:02:03;100334.16;;;-0.83;100.00
45621;BME280;31345;51.522;10.702;2023-04-04T02:04:35;100334.16;;;-0.79;100.00
45621;BME280;31345;51.522;10.702;2023-04-04T02:07:03;100335.00;;;-0.66;100.00
45621;BME280;31345;51.522;10.702;2023-04-04T02:09:31;100328.19;;;-0.74;100.00
45621;BME280;31345;51.522;10.702;2023-04-04T02:12:05;100323.88;;;-0.61;100.00
45621;BME280;31345;51.522;10.702;2023-04-04T02:14:37;100324.75;;;-0.59;100.00
45621;BME280;31345;51.522;10.702;2023-04-04T02:17:10;100323.03;;;-0.64;100.00
45621;BME280;31345;51.522;10.702;2023-04-04T02:19:38;100321.31;;;-0.75;100.00
45621;BME280;31345;51.522;10.702;2023-04-04T02:22:10;100325.59;;;-0.78;100.00
45621;BME280;31345;51.522;10.702;2023-04-04T02:24:38;100314.47;;;-0.73;100.00
45621;BME280;31345;51.522;10.702;2023-04-04T02:27:12;100314.47;;;-0.55;100.00
45621;BME280;31345;51.522;10.702;2023-04-04T02:29:39;100312.75;;;-0.69;100.00
45621;BME280;31345;51.522;10.702;2023-04-04T02:32:07;100311.91;;;-0.68;100.00
45621;BME280;31345;51.522;10.702;2023-04-04T02:34:39;100310.19;;;-0.71;100.00
45621;BME280;31345;51.522;10.702;2023-04-04T02:37:12;100315.31;;;-0.69;100.00
45621;BME280;31345;51.522;10.702;2023-04-04T02:42:21;100311.91;;;-0.71;100.00
45621;BME280;31345;51.522;10.702;2023-04-04T02:44:56;100300.78;;;-0.67;100.00
45621;BME280;31345;51.522;10.702;2023-04-04T02:47:24;100304.19;;;-0.73;100.00
45621;BME280;31345;51.522;10.702;2023-04-04T02:55:27;100299.06;;;-0.59;100.00
45621;BME280;31345;51.522;10.702;2023-04-04T03:01:21;100293.91;;;-0.45;100.00
45621;BME280;31345;51.522;10.702;2023-04-04T03:04:06;100298.19;;;-0.54;100.00
45621;BME280;31345;51.522;10.702;2023-04-04T03:06:41;100293.94;;;-0.57;100.00
45621;BME280;31345;51.522;10.702;2023-04-04T03:09:31;100292.22;;;-0.74;99.57
45621;BME280;31345;51.522;10.702;2023-04-04T03:12:05;100293.03;;;-0.45;100.00
45621;BME280;31345;51.522;10.702;2023-04-04T03:24:09;100281.09;;;-0.57;100.00
45621;BME280;31345;51.522;10.702;2023-04-04T03:26:44;100276.81;;;-0.86;100.00
45621;BME280;31345;51.522;10.702;2023-04-04T03:49:07;100257.09;;;-1.12;100.00
45621;BME280;31345;51.522;10.702;2023-04-04T03:51:58;100260.53;;;-1.12;100.00
45621;BME280;31345;51.522;10.702;2023-04-04T03:54:35;100250.28;;;-1.12;100.00
45621;BME280;31345;51.522;10.702;2023-04-04T04:13:20;100250.09;;;-1.87;100.00
45621;BME280;31345;51.522;10.702;2023-04-04T04:16:09;100245.81;;;-1.89;100.00
45621;BME280;31345;51.522;10.702;2023-04-04T04:19:06;100246.63;;;-1.95;100.00
45621;BME280;31345;51.522;10.702;2023-04-04T04:22:31;100244.94;;;-1.88;100.00
45621;BME280;31345;51.522;10.702;2023-04-04T04:25:13;100247.50;;;-1.88;100.00
45621;BME280;31345;51.522;10.702;2023-04-04T04:28:10;100250.91;;;-1.92;100.00
45621;BME280;31345;51.522;10.702;2023-04-04T04:30:56;100244.91;;;-1.97;100.00
45621;BME280;31345;51.522;10.702;2023-04-04T04:33:41;100251.56;;;-2.31;100.00
45621;BME280;31345;51.522;10.702;2023-04-04T04:36:12;100255.13;;;-2.10;100.00
45621;BME280;31345;51.522;10.702;2023-04-04T04:39:00;100250.81;;;-2.11;100.00
45621;BME280;31345;51.522;10.702;2023-04-04T04:41:35;100246.41;;;-2.40;100.00
45621;BME280;31345;51.522;10.702;2023-04-04T04:44:11;100254.22;;;-2.18;100.00
45621;BME280;31345;51.522;10.702;2023-04-04T04:46:44;100255.13;;;-2.10;100.00
45621;BME280;31345;51.522;10.702;2023-04-04T04:49:21;100252.41;;;-2.35;100.00
45621;BME280;31345;51.522;10.702;2023-04-04T04:51:54;100252.47;;;-2.26;100.00
45621;BME280;31345;51.522;10.702;2023-04-04T04:54:32;100246.47;;;-2.32;100.00
45621;BME280;31345;51.522;10.702;2023-04-04T04:57:06;100256.63;;;-2.40;100.00
45621;BME280;31345;51.522;10.702;2023-04-04T04:59:41;100258.47;;;-2.20;100.00
45621;BME280;31345;51.522;10.702;2023-04-04T05:02:19;100257.47;;;-2.44;100.00
45621;BME280;31345;51.522;10.702;2023-04-04T05:04:50;100264.38;;;-2.31;100.00
45621;BME280;31345;51.522;10.702;2023-04-04T05:07:22;100261.81;;;-2.35;100.00
45621;BME280;31345;51.522;10.702;2023-04-04T05:09:54;100255.94;;;-2.17;100.00
45621;BME280;31345;51.522;10.702;2023-04-04T05:12:40;100261.84;;;-2.26;100.00
45621;BME280;31345;51.522;10.702;2023-04-04T05:15:22;100268.47;;;-2.55;100.00
45621;BME280;31345;51.522;10.702;2023-04-04T05:18:22;100267.84;;;-2.21;100.00
45621;BME280;31345;51.522;10.702;2023-04-04T05:20:56;100272.16;;;-2.15;100.00
45621;BME280;31345;51.522;10.702;2023-04-04T05:23:32;100272.84;;;-2.44;100.00
45621;BME280;31345;51.522;10.702;2023-04-04T05:26:06;100280.66;;;-2.21;100.00
45621;BME280;31345;51.522;10.702;2023-04-04T05:28:40;100278.09;;;-2.24;100.00
45621;BME280;31345;51.522;10.702;2023-04-04T05:31:14;100290.88;;;-2.29;100.00
45621;BME280;31345;51.522;10.702;2023-04-04T05:33:47;100293.47;;;-2.22;100.00
45621;BME280;31345;51.522;10.702;2023-04-04T05:45:57;100301.25;;;-2.04;100.00
45621;BME280;31345;51.522;10.702;2023-04-04T05:48:37;100303.84;;;-1.99;100.00
45621;BME280;31345;51.522;10.702;2023-04-04T05:51:09;100305.72;;;-1.64;100.00
45621;BME280;31345;51.522;10.702;2023-04-04T05:53:54;100306.53;;;-1.80;100.00
45621;BME280;31345;51.522;10.702;2023-04-04T05:56:31;100310.78;;;-1.75;100.00
45621;BME280;31345;51.522;10.702;2023-04-04T05:59:10;100311.72;;;-1.62;100.00
45621;BME280;31345;51.522;10.702;2023-04-04T06:01:55;100310.91;;;-1.53;100.00
45621;BME280;31345;51.522;10.702;2023-04-04T06:04:32;100305.81;;;-1.37;100.00
45621;BME280;31345;51.522;10.702;2023-04-04T06:07:11;100305.84;;;-1.17;100.00
45621;BME280;31345;51.522;10.702;2023-04-04T06:09:41;100301.56;;;-1.23;100.00
45621;BME280;31345;51.522;10.702;2023-04-04T06:12:15;100305.00;;;-1.19;100.00
45621;BME280;31345;51.522;10.702;2023-04-04T06:14:44;100306.75;;;-0.91;100.00
45621;BME280;31345;51.522;10.702;2023-04-04T06:17:15;100305.91;;;-0.84;100.00
45621;BME280;31345;51.522;10.702;2023-04-04T06:19:53;100305.06;;;-0.66;100.00
45621;BME280;31345;51.522;10.702;2023-04-04T06:26:33;100307.59;;;-0.39;98.92
45621;BME280;31345;51.522;10.702;2023-04-04T06:29:08;100307.59;;;-0.17;96.99
45621;BME280;31345;51.522;10.702;2023-04-04T06:31:43;100305.81;;;0.00;97.16
45621;BME280;31345;51.522;10.702;2023-04-04T06:34:25;100304.91;;;0.25;93.93
45621;BME280;31345;51.522;10.702;2023-04-04T06:37:04;100302.28;;;0.29;93.81
45621;BME280;31345;51.522;10.702;2023-04-04T06:39:41;100297.84;;;0.66;93.53
45621;BME280;31345;51.522;10.702;2023-04-04T06:42:19;100295.16;;;0.86;91.49
45621;BME280;31345;51.522;10.702;2023-04-04T06:44:54;100298.50;;;1.02;90.32
45621;BME280;31345;51.522;10.702;2023-04-04T06:47:26;100304.34;;;1.23;89.86
45621;BME280;31345;51.522;10.702;2023-04-04T06:49:59;100308.53;;;1.36;91.77
45621;BME280;31345;51.522;10.702;2023-04-04T06:52:31;100305.81;;;1.55;91.53
45621;BME280;31345;51.522;10.702;2023-04-04T06:55:02;100307.75;;;1.23;90.04
45621;BME280;31345;51.522;10.702;2023-04-04T06:57:31;100308.47;;;1.44;88.33
45621;BME280;31345;51.522;10.702;2023-04-04T06:59:58;100310.00;;;1.66;88.42
45621;BME280;31345;51.522;10.702;2023-04-04T07:02:30;100303.19;;;1.58;86.35
45621;BME280;31345;51.522;10.702;2023-04-04T07:05:03;100311.88;;;1.49;88.97
45621;BME280;31345;51.522;10.702;2023-04-04T07:07:35;100311.09;;;1.40;88.31
45621;BME280;31345;51.522;10.702;2023-04-04T07:10:08;100318.84;;;1.35;88.77
45621;BME280;31345;51.522;10.702;2023-04-04T07:12:42;100327.47;;;1.29;89.50
45621;BME280;31345;51.522;10.702;2023-04-04T07:15:14;100316.25;;;1.38;88.64
45621;BME280;31345;51.522;10.702;2023-04-04T07:17:47;100317.09;;;1.40;88.90
45621;BME280;31345;51.522;10.702;2023-04-04T07:20:19;100313.69;;;1.38;87.86
45621;BME280;31345;51.522;10.702;2023-04-04T07:22:52;100309.31;;;1.43;87.04
45621;BME280;31345;51.522;10.702;2023-04-04T07:25:24;100315.25;;;1.53;86.66
45621;BME280;31345;51.522;10.702;2023-04-04T07:27:58;100311.72;;;1.65;86.78
45621;BME280;31345;51.522;10.702;2023-04-04T07:30:25;100316.81;;;1.73;87.61
45621;BME280;31345;51.522;10.702;2023-04-04T07:33:00;100308.13;;;1.82;86.11
45621;BME280;31345;51.522;10.702;2023-04-04T07:35:33;100318.34;;;1.93;85.16
45621;BME280;31345;51.522;10.702;2023-04-04T07:38:05;100314.78;;;2.06;85.75
45621;BME280;31345;51.522;10.702;2023-04-04T07:40:38;100313.22;;;1.88;85.60
45621;BME280;31345;51.522;10.702;2023-04-04T07:43:12;100305.38;;;1.99;85.50
45621;BME280;31345;51.522;10.702;2023-04-04T07:45:39;100299.28;;;2.06;82.45
45621;BME280;31345;51.522;10.702;2023-04-04T07:48:06;100297.25;;;2.32;83.47
45621;BME280;31345;51.522;10.702;2023-04-04T07:50:34;100303.97;;;2.47;85.01
45621;BME280;31345;51.522;10.702;2023-04-04T07:53:07;100298.66;;;2.58;85.13
45621;BME280;31345;51.522;10.702;2023-04-04T07:55:39;100293.38;;;2.67;82.03
45621;BME280;31345;51.522;10.702;2023-04-04T07:58:13;100286.91;;;2.98;84.87
45621;BME280;31345;51.522;10.702;2023-04-04T08:00:46;100285.66;;;3.24;80.67
45621;BME280;31345;51.522;10.702;2023-04-04T08:03:18;100281.84;;;3.45;80.78
45621;BME280;31345;51.522;10.702;2023-04-04T08:05:51;100283.00;;;3.28;82.58
45621;BME280;31345;51.522;10.702;2023-04-04T08:08:23;100288.50;;;3.05;77.55
45621;BME280;31345;51.522;10.702;2023-04-04T08:10:56;100297.31;;;2.93;79.98
45621;BME280;31345;51.522;10.702;2023-04-04T08:13:29;100293.09;;;2.87;78.63
45621;BME280;31345;51.522;10.702;2023-04-04T08:16:02;100293.28;;;2.75;77.07
45621;BME280;31345;51.522;10.702;2023-04-04T08:18:34;100294.91;;;2.81;76.98
45621;BME280;31345;51.522;10.702;2023-04-04T08:21:07;100293.97;;;2.86;76.54
45621;BME280;31345;51.522;10.702;2023-04-04T08:23:39;100294.09;;;2.75;76.22
45621;BME280;31345;51.522;10.702;2023-04-04T08:26:11;100291.72;;;2.61;72.10
45621;BME280;31345;51.522;10.702;2023-04-04T08:28:40;100284.44;;;2.90;73.52
45621;BME280;31345;51.522;10.702;2023-04-04T08:31:07;100292.41;;;3.33;73.31
45621;BME280;31345;51.522;10.702;2023-04-04T08:33:35;100281.56;;;3.10;67.39
45621;BME280;31345;51.522;10.702;2023-04-04T08:36:02;100288.34;;;3.16;70.69
45621;BME280;31345;51.522;10.702;2023-04-04T08:38:35;100284.28;;;3.01;71.46
45621;BME280;31345;51.522;10.702;2023-04-04T08:41:07;100285.91;;;3.07;67.25
45621;BME280;31345;51.522;10.702;2023-04-04T08:43:42;100279.94;;;3.03;69.52
45621;BME280;31345;51.522;10.702;2023-04-04T08:46:16;100284.19;;;3.07;72.09
45621;BME280;31345;51.522;10.702;2023-04-04T08:48:43;100287.38;;;3.22;68.05
45621;BME280;31345;51.522;10.702;2023-04-04T08:51:17;100284.41;;;3.95;67.93
45621;BME280;31345;51.522;10.702;2023-04-04T08:53:45;100284.94;;;4.12;65.58
45621;BME280;31345;51.522;10.702;2023-04-04T08:56:17;100297.00;;;3.65;67.58
45621;BME280;31345;51.522;10.702;2023-04-04T08:58:46;100290.78;;;3.27;65.13
45621;BME280;31345;51.522;10.702;2023-04-04T09:01:19;100293.94;;;3.43;66.11
45621;BME280;31345;51.522;10.702;2023-04-04T09:03:51;100294.97;;;3.85;69.13
45621;BME280;31345;51.522;10.702;2023-04-04T09:06:19;100284.47;;;4.37;66.48
45621;BME280;31345;51.522;10.702;2023-04-04T09:08:52;100279.34;;;4.75;62.93
45621;BME280;31345;51.522;10.702;2023-04-04T09:11:20;100275.31;;;4.59;59.19
45621;BME280;31345;51.522;10.702;2023-04-04T09:13:54;100279.97;;;4.45;65.52
45621;BME280;31345;51.522;10.702;2023-04-04T09:16:28;100271.31;;;4.03;63.63
45621;BME280;31345;51.522;10.702;2023-04-04T09:19:01;100273.78;;;4.10;61.34
45621;BME280;31345;51.522;10.702;2023-04-04T09:21:33;100273.56;;;4.20;61.89
45621;BME280;31345;51.522;10.702;2023-04-04T09:24:00;100266.78;;;4.13;59.89
45621;BME280;31345;51.522;10.702;2023-04-04T09:26:28;100278.53;;;3.87;64.46
45621;BME280;31345;51.522;10.702;2023-04-04T09:29:03;100275.06;;;3.87;61.58
45621;BME280;31345;51.522;10.702;2023-04-04T09:31:35;100273.63;;;4.16;64.74
45621;BME280;31345;51.522;10.702;2023-04-04T09:34:08;100274.97;;;4.36;64.90
45621;BME280;31345;51.522;10.702;2023-04-04T09:36:41;100274.28;;;4.27;63.52
45621;BME280;31345;51.522;10.702;2023-04-04T09:39:14;100272.84;;;4.56;64.15
45621;BME280;31345;51.522;10.702;2023-04-04T09:41:47;100270.78;;;4.69;61.58
45621;BME280;31345;51.522;10.702;2023-04-04T09:44:21;100273.41;;;4.68;64.15
45621;BME280;31345;51.522;10.702;2023-04-04T09:46:49;100272.03;;;4.53;63.47
45621;BME280;31345;51.522;10.702;2023-04-04T09:49:23;100272.50;;;4.31;61.94
45621;BME280;31345;51.522;10.702;2023-04-04T09:51:52;100276.63;;;3.97;61.49
45621;BME280;31345;51.522;10.702;2023-04-04T09:54:24;100278.66;;;4.25;65.43
45621;BME280;31345;51.522;10.702;2023-04-04T09:56:57;100269.91;;;4.31;64.19
45621;BME280;31345;51.522;10.702;2023-04-04T09:59:25;100267.78;;;4.06;59.78
45621;BME280;31345;51.522;10.702;2023-04-04T10:02:00;100274.22;;;4.71;65.14
45621;BME280;31345;51.522;10.702;2023-04-04T10:04:33;100268.66;;;4.89;64.00
45621;BME280;31345;51.522;10.702;2023-04-04T10:07:09;100269.53;;;4.88;60.40
45621;BME280;31345;51.522;10.702;2023-04-04T10:09:37;100268.50;;;4.95;64.54
45621;BME280;31345;51.522;10.702;2023-04-04T10:12:08;100264.00;;;4.64;63.39
45621;BME280;31345;51.522;10.702;2023-04-04T10:14:37;100260.88;;;4.51;64.38
45621;BME280;31345;51.522;10.702;2023-04-04T10:17:07;100263.34;;;4.55;65.68
45621;BME280;31345;51.522;10.702;2023-04-04T10:19:40;100270.38;;;4.49;64.02
45621;BME280;31345;51.522;10.702;2023-04-04T10:22:14;100259.13;;;4.50;56.68
45621;BME280;31345;51.522;10.702;2023-04-04T10:24:47;100258.63;;;4.75;57.69
45621;BME280;31345;51.522;10.702;2023-04-04T10:27:19;100253.22;;;5.54;57.54
45621;BME280;31345;51.522;10.702;2023-04-04T10:29:53;100258.31;;;5.58;61.17
45621;BME280;31345;51.522;10.702;2023-04-04T10:32:32;100249.97;;;5.12;58.80
45621;BME280;31345;51.522;10.702;2023-04-04T10:35:07;100251.38;;;4.88;56.86
45621;BME280;31345;51.522;10.702;2023-04-04T10:37:42;100241.84;;;5.26;55.99
45621;BME280;31345;51.522;10.702;2023-04-04T10:40:15;100235.06;;;5.87;65.20
45621;BME280;31345;51.522;10.702;2023-04-04T10:42:49;100243.50;;;5.95;65.41
45621;BME280;31345;51.522;10.702;2023-04-04T10:45:23;100232.56;;;5.84;57.35
45621;BME280;31345;51.522;10.702;2023-04-04T10:47:57;100238.22;;;6.28;60.38
45621;BME280;31345;51.522;10.702;2023-04-04T10:50:25;100227.88;;;6.27;61.11
45621;BME280;31345;51.522;10.702;2023-04-04T10:52:58;100220.78;;;6.61;58.69
45621;BME280;31345;51.522;10.702;2023-04-04T10:55:32;100220.09;;;6.56;61.54
45621;BME280;31345;51.522;10.702;2023-04-04T10:58:00;100215.50;;;6.64;61.30
45621;BME280;31345;51.522;10.702;2023-04-04T11:00:29;100210.22;;;6.94;56.22
45621;BME280;31345;51.522;10.702;2023-04-04T11:02:57;100212.41;;;7.07;59.88
45621;BME280;31345;51.522;10.702;2023-04-04T11:05:30;100213.69;;;6.66;55.95
45621;BME280;31345;51.522;10.702;2023-04-04T11:07:59;100210.53;;;7.37;53.81
45621;BME280;31345;51.522;10.702;2023-04-04T11:10:27;100203.53;;;6.87;55.59
45621;BME280;31345;51.522;10.702;2023-04-04T11:12:56;100202.28;;;7.24;58.38
45621;BME280;31345;51.522;10.702;2023-04-04T11:15:45;100196.91;;;6.76;54.78
45621;BME280;31345;51.522;10.702;2023-04-04T11:18:18;100190.09;;;7.01;58.95
45621;BME280;31345;51.522;10.702;2023-04-04T11:20:46;100193.50;;;7.01;58.27
45621;BME280;31345;51.522;10.702;2023-04-04T11:23:14;100194.09;;;7.62;57.58
45621;BME280;31345;51.522;10.702;2023-04-04T11:25:49;100196.59;;;7.13;57.81
45621;BME280;31345;51.522;10.702;2023-04-04T11:28:26;100194.38;;;7.78;57.29
45621;BME280;31345;51.522;10.702;2023-04-04T11:34:01;100182.38;;;7.74;53.99
45621;BME280;31345;51.522;10.702;2023-04-04T11:36:52;100175.88;;;7.86;49.58
45621;BME280;31345;51.522;10.702;2023-04-04T11:39:25;100175.19;;;8.05;50.97
45621;BME280;31345;51.522;10.702;2023-04-04T11:42:00;100177.06;;;7.26;49.21
45621;BME280;31345;51.522;10.702;2023-04-04T11:44:38;100166.69;;;8.00;52.82
45621;BME280;31345;51.522;10.702;2023-04-04T11:47:08;100167.19;;;8.10;55.01
45621;BME280;31345;51.522;10.702;2023-04-04T11:49:38;100167.25;;;7.84;54.40
45621;BME280;31345;51.522;10.702;2023-04-04T11:52:08;100164.31;;;8.17;51.22
45621;BME280;31345;51.522;10.702;2023-04-04T11:54:41;100155.25;;;8.49;50.31
45621;BME280;31345;51.522;10.702;2023-04-04T11:57:14;100163.69;;;8.78;51.37
45621;BME280;31345;51.522;10.702;2023-04-04T11:59:47;100153.41;;;8.52;54.59
45621;BME280;31345;51.522;10.702;2023-04-04T12:02:17;100138.81;;;8.26;49.37
45621;BME280;31345;51.522;10.702;2023-04-04T12:04:46;100144.25;;;8.19;49.65
45621;BME280;31345;51.522;10.702;2023-04-04T12:07:19;100133.47;;;8.51;53.22
45621;BME280;31345;51.522;10.702;2023-04-04T12:09:51;100138.38;;;8.37;51.30
45621;BME280;31345;51.522;10.702;2023-04-04T12:12:24;100134.13;;;8.56;52.60
45621;BME280;31345;51.522;10.702;2023-04-04T12:14:52;100131.00;;;8.69;53.14
45621;BME280;31345;51.522;10.702;2023-04-04T12:17:27;100134.81;;;9.03;52.46
45621;BME280;31345;51.522;10.702;2023-04-04T12:19:56;100126.97;;;8.39;50.47
45621;BME280;31345;51.522;10.702;2023-04-04T12:22:24;100126.91;;;7.96;51.09
45621;BME280;31345;51.522;10.702;2023-04-04T12:24:56;100127.47;;;8.04;49.98
45621;BME280;31345;51.522;10.702;2023-04-04T12:27:24;100124.00;;;8.26;57.50
45621;BME280;31345;51.522;10.702;2023-04-04T12:29:56;100125.84;;;7.78;54.01
45621;BME280;31345;51.522;10.702;2023-04-04T12:32:29;100112.06;;;8.20;50.79
45621;BME280;31345;51.522;10.702;2023-04-04T12:35:00;100110.31;;;7.01;55.51
45621;BME280;31345;51.522;10.702;2023-04-04T12:37:32;100107.94;;;6.95;51.54
45621;BME280;31345;51.522;10.702;2023-04-04T12:40:05;100102.50;;;7.99;51.97
45621;BME280;31345;51.522;10.702;2023-04-04T12:42:33;100098.00;;;8.02;51.09
45621;BME280;31345;51.522;10.702;2023-04-04T12:45:00;100092.72;;;8.49;55.48
45621;BME280;31345;51.522;10.702;2023-04-04T12:47:29;100094.25;;;8.96;55.27
45621;BME280;31345;51.522;10.702;2023-04-04T12:50:03;100084.75;;;8.31;48.92
45621;BME280;31345;51.522;10.702;2023-04-04T12:52:39;100088.97;;;7.89;51.06
45621;BME280;31345;51.522;10.702;2023-04-04T12:55:12;100091.41;;;7.93;50.97
45621;BME280;31345;51.522;10.702;2023-04-04T12:57:44;100084.16;;;7.55;51.31
45621;BME280;31345;51.522;10.702;2023-04-04T13:00:20;100078.72;;;7.62;50.39
45621;BME280;31345;51.522;10.702;2023-04-04T13:02:48;100081.88;;;7.21;52.59
45621;BME280;31345;51.522;10.702;2023-04-04T13:05:18;100081.66;;;6.77;54.53
45621;BME280;31345;51.522;10.702;2023-04-04T13:07:48;100069.41;;;7.30;54.28
45621;BME280;31345;51.522;10.702;2023-04-04T13:10:15;100074.25;;;6.92;54.33
45621;BME280;31345;51.522;10.702;2023-04-04T13:12:56;100061.91;;;6.72;52.74
45621;BME280;31345;51.522;10.702;2023-04-04T13:15:48;100066.81;;;6.81;52.81
45621;BME280;31345;51.522;10.702;2023-04-04T13:18:22;100062.84;;;7.20;52.93
45621;BME280;31345;51.522;10.702;2023-04-04T13:20:56;100055.06;;;7.20;51.99
45621;BME280;31345;51.522;10.702;2023-04-04T13:23:23;100052.66;;;7.14;53.17
45621;BME280;31345;51.522;10.702;2023-04-04T13:25:51;100065.19;;;7.98;53.19
45621;BME280;31345;51.522;10.702;2023-04-04T13:28:23;100048.81;;;8.60;48.78
45621;BME280;31345;51.522;10.702;2023-04-04T13:30:56;100039.94;;;8.43;45.13
45621;BME280;31345;51.522;10.702;2023-04-04T13:33:28;100039.81;;;8.67;42.11
45621;BME280;31345;51.522;10.702;2023-04-04T13:36:02;100042.75;;;8.59;47.60
45621;BME280;31345;51.522;10.702;2023-04-04T13:38:35;100046.72;;;8.89;46.84
45621;BME280;31345;51.522;10.702;2023-04-04T13:41:07;100041.03;;;9.00;50.07
45621;BME280;31345;51.522;10.702;2023-04-04T13:43:41;100028.50;;;9.28;45.49
45621;BME280;31345;51.522;10.702;2023-04-04T13:46:08;100025.19;;;9.24;44.86
45621;BME280;31345;51.522;10.702;2023-04-04T13:48:41;100026.50;;;8.53;47.48
45621;BME280;31345;51.522;10.702;2023-04-04T13:51:15;100029.28;;;8.50;50.61
45621;BME280;31345;51.522;10.702;2023-04-04T13:53:47;100022.19;;;8.10;50.13
45621;BME280;31345;51.522;10.702;2023-04-04T13:56:15;100022.44;;;7.81;51.32
45621;BME280;31345;51.522;10.702;2023-04-04T13:58:47;100022.25;;;7.64;53.58
45621;BME280;31345;51.522;10.702;2023-04-04T14:01:16;100015.72;;;7.52;53.64
45621;BME280;31345;51.522;10.702;2023-04-04T14:03:48;100013.19;;;7.26;50.88
45621;BME280;31345;51.522;10.702;2023-04-04T14:06:17;100012.63;;;7.66;53.37
45621;BME280;31345;51.522;10.702;2023-04-04T14:08:44;100016.88;;;6.97;51.48
45621;BME280;31345;51.522;10.702;2023-04-04T14:11:17;100012.13;;;7.08;50.49
45621;BME280;31345;51.522;10.702;2023-04-04T14:13:45;100017.25;;;7.34;58.08
45621;BME280;31345;51.522;10.702;2023-04-04T14:16:18;100012.97;;;7.33;54.23
45621;BME280;31345;51.522;10.702;2023-04-04T14:18:51;100014.25;;;7.44;57.63
45621;BME280;31345;51.522;10.702;2023-04-04T14:21:20;100012.81;;;7.84;53.19
45621;BME280;31345;51.522;10.702;2023-04-04T14:23:52;100003.50;;;8.21;53.88
45621;BME280;31345;51.522;10.702;2023-04-04T14:26:20;100010.75;;;7.92;53.71